sensor_id;sensor_type;location;lat;lon;timestamp;pressure;altitude;pressure_sealevel;temperature;humidity
77263;BME280;66373;52.334;4.806;2023-08-06T00:01:59;100419.84;;;19.31;64.04
77263;BME280;66373;52.334;4.806;2023-08-06T00:04:26;100413.78;;;19.30;63.91
77263;BME280;66373;52.334;4.806;2023-08-06T00:06:53;100411.16;;;19.30;63.91
77263;BME280;66373;52.334;4.806;2023-08-06T00:09:20;100412.91;;;19.30;63.65
77263;BME280;66373;52.334;4.806;2023-08-06T00:11:47;100413.78;;;19.30;64.16
77263;BME280;66373;52.334;4.806;2023-08-06T00:14:15;100412.06;;;19.29;64.18
77263;BME280;66373;52.334;4.806;2023-08-06T00:16:43;100408.66;;;19.27;63.85
77263;BME280;66373;52.334;4.806;2023-08-06T00:19:13;100406.84;;;19.29;64.26
77263;BME280;66373;52.334;4.806;2023-08-06T00:21:40;100412.06;;;19.29;63.95
77263;BME280;66373;52.334;4.806;2023-08-06T00:24:07;100404.34;;;19.26;63.91
77263;BME280;66373;52.334;4.806;2023-08-06T00:26:34;100405.16;;;19.28;63.77
77263;BME280;66373;52.334;4.806;2023-08-06T00:29:03;100405.16;;;19.28;64.05
77263;BME280;66373;52.334;4.806;2023-08-06T00:31:30;100406.84;;;19.29;64.00
77263;BME280;66373;52.334;4.806;2023-08-06T00:33:57;100410.34;;;19.28;63.91
77263;BME280;66373;52.334;4.806;2023-08-06T00:36:26;100337.16;;;18.82;63.95
77263;BME280;66373;52.334;4.806;2023-08-06T00:38:53;100411.25;;;19.27;64.00
77263;BME280;66373;52.334;4.806;2023-08-06T00:41:21;100413.88;;;19.27;63.98
77263;BME280;66373;52.334;4.806;2023-08-06T00:43:48;100405.19;;;19.27;64.15
77263;BME280;66373;52.334;4.806;2023-08-06T00:46:15;100402.69;;;19.24;63.99
77263;BME280;66373;52.334;4.806;2023-08-06T00:48:43;100412.16;;;19.26;64.30
77263;BME280;66373;52.334;4.806;2023-08-06T00:51:10;100400.16;;;19.22;64.16
77263;BME280;66373;52.334;4.806;2023-08-06T00:53:39;100410.41;;;19.27;64.49
77263;BME280;66373;52.334;4.806;2023-08-06T00:56:06;100411.31;;;19.26;64.19
77263;BME280;66373;52.334;4.806;2023-08-06T00:58:35;100406.09;;;19.26;64.26
77263;BME280;66373;52.334;4.806;2023-08-06T01:01:02;100397.59;;;19.21;64.00
77263;BME280;66373;52.334;4.806;2023-08-06T01:03:29;100408.66;;;19.27;63.95
77263;BME280;66373;52.334;4.806;2023-08-06T01:05:56;100400.94;;;19.24;64.37
77263;BME280;66373;52.334;4.806;2023-08-06T01:08:33;100400.06;;;19.24;64.05
77263;BME280;66373;52.334;4.806;2023-08-06T01:11:14;100411.31;;;19.26;64.13
77263;BME280;66373;52.334;4.806;2023-08-06T01:13:46;100386.41;;;19.17;64.41
77263;BME280;66373;52.334;4.806;2023-08-06T01:16:16;100410.47;;;19.25;64.38
77263;BME280;66373;52.334;4.806;2023-08-06T01:18:44;100408.75;;;19.24;64.41
77263;BME280;66373;52.334;4.806;2023-08-06T01:21:14;100414.81;;;19.25;64.40
77263;BME280;66373;52.334;4.806;2023-08-06T01:23:41;100415.66;;;19.25;64.48
77263;BME280;66373;52.334;4.806;2023-08-06T01:26:14;100413.13;;;19.24;64.45
77263;BME280;66373;52.334;4.806;2023-08-06T01:28:50;100404.63;;;19.19;64.55
77263;BME280;66373;52.334;4.806;2023-08-06T01:31:22;100409.66;;;19.23;64.41
77263;BME280;66373;52.334;4.806;2023-08-06T01:33:51;100409.66;;;19.23;64.60
77263;BME280;66373;52.334;4.806;2023-08-06T01:36:23;100417.47;;;19.23;64.29
77263;BME280;66373;52.334;4.806;2023-08-06T01:38:51;100414.88;;;19.23;64.71
77263;BME280;66373;52.334;4.806;2023-08-06T01:41:18;100414.88;;;19.23;64.82
77263;BME280;66373;52.334;4.806;2023-08-06T01:43:45;100391.81;;;19.11;64.85
77263;BME280;66373;52.334;4.806;2023-08-06T01:46:12;100388.41;;;19.09;64.51
77263;BME280;66373;52.334;4.806;2023-08-06T01:48:39;100408.88;;;19.21;64.80
77263;BME280;66373;52.334;4.806;2023-08-06T01:51:07;100411.50;;;19.21;64.60
77263;BME280;66373;52.334;4.806;2023-08-06T01:53:35;100413.25;;;19.21;64.48
77263;BME280;66373;52.334;4.806;2023-08-06T01:56:02;100415.81;;;19.22;65.05
77263;BME280;66373;52.334;4.806;2023-08-06T01:58:29;100413.44;;;19.15;64.65
77263;BME280;66373;52.334;4.806;2023-08-06T02:00:57;100411.53;;;19.20;64.92
77263;BME280;66373;52.334;4.806;2023-08-06T02:03:24;100422.91;;;19.17;64.96
77263;BME280;66373;52.334;4.806;2023-08-06T02:05:51;100422.81;;;19.20;64.63
77263;BME280;66373;52.334;4.806;2023-08-06T02:08:18;100419.41;;;19.18;65.09
77263;BME280;66373;52.334;4.806;2023-08-06T02:10:47;100428.03;;;19.20;64.64
77263;BME280;66373;52.334;4.806;2023-08-06T02:13:14;100417.78;;;19.14;64.91
77263;BME280;66373;52.334;4.806;2023-08-06T02:15:42;100420.25;;;19.19;65.15
77263;BME280;66373;52.334;4.806;2023-08-06T02:18:10;100418.50;;;19.19;64.84
77263;BME280;66373;52.334;4.806;2023-08-06T02:20:37;100420.31;;;19.17;65.20
77263;BME280;66373;52.334;4.806;2023-08-06T02:23:04;100422.88;;;19.19;64.86
77263;BME280;66373;52.334;4.806;2023-08-06T02:25:31;100431.53;;;19.19;64.78
77263;BME280;66373;52.334;4.806;2023-08-06T02:28:00;100415.28;;;19.11;64.90
77263;BME280;66373;52.334;4.806;2023-08-06T02:30:28;100429.84;;;19.18;64.84
77263;BME280;66373;52.334;4.806;2023-08-06T02:32:55;100422.91;;;19.17;65.30
77263;BME280;66373;52.334;4.806;2023-08-06T02:35:22;100428.13;;;19.17;64.75
77263;BME280;66373;52.334;4.806;2023-08-06T02:37:49;100401.72;;;19.00;65.02
77263;BME280;66373;52.334;4.806;2023-08-06T02:40:16;100430.75;;;19.17;65.36
77263;BME280;66373;52.334;4.806;2023-08-06T02:42:44;100426.44;;;19.16;65.29
77263;BME280;66373;52.334;4.806;2023-08-06T02:45:12;100429.03;;;19.16;65.18
77263;BME280;66373;52.334;4.806;2023-08-06T02:47:39;100426.44;;;19.16;65.29
77263;BME280;66373;52.334;4.806;2023-08-06T02:50:07;100411.91;;;19.08;65.10
77263;BME280;66373;52.334;4.806;2023-08-06T02:52:34;100405.75;;;19.10;64.88
77263;BME280;66373;52.334;4.806;2023-08-06T02:55:01;100404.06;;;19.09;64.42
77263;BME280;66373;52.334;4.806;2023-08-06T02:57:30;100421.91;;;19.21;64.06
77263;BME280;66373;52.334;4.806;2023-08-06T02:59:57;100421.78;;;19.24;64.13
77263;BME280;66373;52.334;4.806;2023-08-06T03:02:26;100412.38;;;19.20;63.96
77263;BME280;66373;52.334;4.806;2023-08-06T03:04:59;100423.44;;;19.27;63.45
77263;BME280;66373;52.334;4.806;2023-08-06T03:07:31;100431.22;;;19.28;63.42
77263;BME280;66373;52.334;4.806;2023-08-06T03:10:06;100427.72;;;19.29;63.31
77263;BME280;66373;52.334;4.806;2023-08-06T03:12:34;100428.56;;;19.30;63.49
77263;BME280;66373;52.334;4.806;2023-08-06T03:15:03;100426.81;;;19.30;63.72
77263;BME280;66373;52.334;4.806;2023-08-06T03:17:32;100431.13;;;19.31;63.39
77263;BME280;66373;52.334;4.806;2023-08-06T03:20:00;100425.91;;;19.31;63.19
77263;BME280;66373;52.334;4.806;2023-08-06T03:22:28;100434.59;;;19.32;63.59
77263;BME280;66373;52.334;4.806;2023-08-06T03:24:55;100418.31;;;19.24;63.71
77263;BME280;66373;52.334;4.806;2023-08-06T03:27:24;100428.47;;;19.33;63.02
77263;BME280;66373;52.334;4.806;2023-08-06T03:29:52;100433.69;;;19.33;63.58
77263;BME280;66373;52.334;4.806;2023-08-06T03:32:22;100435.38;;;19.34;63.58
77263;BME280;66373;52.334;4.806;2023-08-06T03:34:51;100406.28;;;19.21;63.33
77263;BME280;66373;52.334;4.806;2023-08-06T03:37:20;100429.31;;;19.33;63.74
77263;BME280;66373;52.334;4.806;2023-08-06T03:39:47;100430.13;;;19.36;63.18
77263;BME280;66373;52.334;4.806;2023-08-06T03:42:14;100420.84;;;19.27;63.45
77263;BME280;66373;52.334;4.806;2023-08-06T03:44:41;100413.97;;;19.24;63.46
77263;BME280;66373;52.334;4.806;2023-08-06T03:47:09;100440.59;;;19.34;63.17
77263;BME280;66373;52.334;4.806;2023-08-06T03:49:36;100444.88;;;19.37;63.48
77263;BME280;66373;52.334;4.806;2023-08-06T03:52:06;100439.75;;;19.33;62.98
77263;BME280;66373;52.334;4.806;2023-08-06T03:54:33;100448.38;;;19.36;63.57
77263;BME280;66373;52.334;4.806;2023-08-06T03:57:01;100444.88;;;19.37;63.38
77263;BME280;66373;52.334;4.806;2023-08-06T03:59:28;100437.06;;;19.37;63.69
77263;BME280;66373;52.334;4.806;2023-08-06T04:01:56;100433.53;;;19.38;63.08
77263;BME280;66373;52.334;4.806;2023-08-06T04:04:23;100437.00;;;19.38;63.38
77263;BME280;66373;52.334;4.806;2023-08-06T04:06:50;100430.19;;;19.34;63.32
77263;BME280;66373;52.334;4.806;2023-08-06T04:09:18;100424.31;;;19.27;63.39
77263;BME280;66373;52.334;4.806;2023-08-06T04:11:46;100448.28;;;19.39;63.30
77263;BME280;66373;52.334;4.806;2023-08-06T04:14:13;100448.28;;;19.39;63.48
77263;BME280;66373;52.334;4.806;2023-08-06T04:16:40;100443.06;;;19.39;63.28
77263;BME280;66373;52.334;4.806;2023-08-06T04:19:07;100443.06;;;19.39;63.53
77263;BME280;66373;52.334;4.806;2023-08-06T04:21:34;100445.69;;;19.39;63.18
77263;BME280;66373;52.334;4.806;2023-08-06T04:24:03;100436.28;;;19.33;63.66
77263;BME280;66373;52.334;4.806;2023-08-06T04:26:32;100443.06;;;19.39;62.99
77263;BME280;66373;52.334;4.806;2023-08-06T04:28:59;100445.78;;;19.36;63.04
77263;BME280;66373;52.334;4.806;2023-08-06T04:31:28;100450.00;;;19.40;62.98
77263;BME280;66373;52.334;4.806;2023-08-06T04:33:56;100455.22;;;19.40;63.51
77263;BME280;66373;52.334;4.806;2023-08-06T04:36:24;100420.88;;;19.25;62.86
77263;BME280;66373;52.334;4.806;2023-08-06T04:38:51;100455.22;;;19.40;63.58
77263;BME280;66373;52.334;4.806;2023-08-06T04:41:18;100457.78;;;19.41;63.51
77263;BME280;66373;52.334;4.806;2023-08-06T04:43:47;100462.13;;;19.41;62.97
77263;BME280;66373;52.334;4.806;2023-08-06T04:46:14;100462.22;;;19.38;63.49
77263;BME280;66373;52.334;4.806;2023-08-06T04:48:41;100469.06;;;19.42;63.40
77263;BME280;66373;52.334;4.806;2023-08-06T04:51:08;100469.91;;;19.42;63.16
77263;BME280;66373;52.334;4.806;2023-08-06T04:53:35;100465.59;;;19.41;63.46
77263;BME280;66373;52.334;4.806;2023-08-06T04:56:03;100465.66;;;19.40;63.44
77263;BME280;66373;52.334;4.806;2023-08-06T04:58:30;100476.06;;;19.40;63.03
77263;BME280;66373;52.334;4.806;2023-08-06T05:00:59;100474.38;;;19.39;62.98
77263;BME280;66373;52.334;4.806;2023-08-06T05:03:26;100467.44;;;19.38;63.16
77263;BME280;66373;52.334;4.806;2023-08-06T05:05:53;100474.38;;;19.39;63.31
77263;BME280;66373;52.334;4.806;2023-08-06T05:08:20;100484.66;;;19.43;63.01
77263;BME280;66373;52.334;4.806;2023-08-06T05:10:47;100477.88;;;19.38;62.93
77263;BME280;66373;52.334;4.806;2023-08-06T05:13:14;100482.94;;;19.42;63.35
77263;BME280;66373;52.334;4.806;2023-08-06T05:15:42;100490.78;;;19.42;63.04
77263;BME280;66373;52.334;4.806;2023-08-06T05:18:12;100456.44;;;19.28;63.27
77263;BME280;66373;52.334;4.806;2023-08-06T05:20:42;100486.41;;;19.43;63.28
77263;BME280;66373;52.334;4.806;2023-08-06T05:23:09;100495.94;;;19.44;62.91
77263;BME280;66373;52.334;4.806;2023-08-06T05:25:37;100490.78;;;19.42;63.04
77263;BME280;66373;52.334;4.806;2023-08-06T05:28:04;100495.94;;;19.44;63.14
77263;BME280;66373;52.334;4.806;2023-08-06T05:30:31;100489.97;;;19.40;63.03
77263;BME280;66373;52.334;4.806;2023-08-06T05:32:58;100498.56;;;19.44;63.09
77263;BME280;66373;52.334;4.806;2023-08-06T05:35:27;100497.75;;;19.42;62.95
77263;BME280;66373;52.334;4.806;2023-08-06T05:37:54;100498.66;;;19.41;62.89
77263;BME280;66373;52.334;4.806;2023-08-06T05:40:21;100510.69;;;19.45;62.88
77263;BME280;66373;52.334;4.806;2023-08-06T05:42:48;100521.97;;;19.45;62.80
77263;BME280;66373;52.334;4.806;2023-08-06T05:45:15;100521.13;;;19.45;63.01
77263;BME280;66373;52.334;4.806;2023-08-06T05:47:43;100511.75;;;19.39;62.69
77263;BME280;66373;52.334;4.806;2023-08-06T05:50:10;100522.84;;;19.46;62.67
77263;BME280;66373;52.334;4.806;2023-08-06T05:52:38;100523.75;;;19.45;63.02
77263;BME280;66373;52.334;4.806;2023-08-06T05:55:06;100531.56;;;19.45;63.21
77263;BME280;66373;52.334;4.806;2023-08-06T05:57:33;100531.56;;;19.45;63.13
77263;BME280;66373;52.334;4.806;2023-08-06T06:00:00;100532.41;;;19.45;62.93
77263;BME280;66373;52.334;4.806;2023-08-06T06:02:38;100516.28;;;19.32;62.70
77263;BME280;66373;52.334;4.806;2023-08-06T06:05:05;100538.50;;;19.46;62.75
77263;BME280;66373;52.334;4.806;2023-08-06T06:07:32;100542.00;;;19.45;62.71
77263;BME280;66373;52.334;4.806;2023-08-06T06:10:04;100547.22;;;19.45;63.19
77263;BME280;66373;52.334;4.806;2023-08-06T06:12:31;100554.16;;;19.46;62.68
77263;BME280;66373;52.334;4.806;2023-08-06T06:14:58;100550.69;;;19.45;63.01
77263;BME280;66373;52.334;4.806;2023-08-06T06:17:26;100545.50;;;19.44;62.95
77263;BME280;66373;52.334;4.806;2023-08-06T06:19:53;100560.22;;;19.46;63.08
77263;BME280;66373;52.334;4.806;2023-08-06T06:22:20;100560.22;;;19.46;62.81
77263;BME280;66373;52.334;4.806;2023-08-06T06:24:47;100556.75;;;19.46;62.88
77263;BME280;66373;52.334;4.806;2023-08-06T06:27:16;100565.44;;;19.46;63.12
77263;BME280;66373;52.334;4.806;2023-08-06T06:29:43;100544.88;;;19.36;62.72
77263;BME280;66373;52.334;4.806;2023-08-06T06:32:10;100575.88;;;19.46;62.62
77263;BME280;66373;52.334;4.806;2023-08-06T06:34:37;100561.25;;;19.41;62.81
77263;BME280;66373;52.334;4.806;2023-08-06T06:37:04;100574.16;;;19.45;62.94
77263;BME280;66373;52.334;4.806;2023-08-06T06:39:32;100574.16;;;19.45;62.70
77263;BME280;66373;52.334;4.806;2023-08-06T06:41:59;100584.53;;;19.47;62.63
77263;BME280;66373;52.334;4.806;2023-08-06T06:44:35;100578.47;;;19.46;62.95
77263;BME280;66373;52.334;4.806;2023-08-06T06:47:03;100582.88;;;19.44;63.16
77263;BME280;66373;52.334;4.806;2023-08-06T06:49:31;100594.97;;;19.47;62.63
77263;BME280;66373;52.334;4.806;2023-08-06T06:51:59;100587.16;;;19.47;62.54
77263;BME280;66373;52.334;4.806;2023-08-06T06:54:26;100593.22;;;19.47;62.96
77263;BME280;66373;52.334;4.806;2023-08-06T06:56:53;100597.59;;;19.47;62.83
77263;BME280;66373;52.334;4.806;2023-08-06T06:59:20;100587.16;;;19.47;63.07
77263;BME280;66373;52.334;4.806;2023-08-06T07:01:48;100592.38;;;19.47;62.75
77263;BME280;66373;52.334;4.806;2023-08-06T07:04:15;100589.91;;;19.42;62.75
77263;BME280;66373;52.334;4.806;2023-08-06T07:06:42;100596.69;;;19.48;62.75
77263;BME280;66373;52.334;4.806;2023-08-06T07:09:09;100570.13;;;19.35;62.94
77263;BME280;66373;52.334;4.806;2023-08-06T07:11:36;100591.50;;;19.46;63.01
77263;BME280;66373;52.334;4.806;2023-08-06T07:14:04;100594.06;;;19.48;62.96
77263;BME280;66373;52.334;4.806;2023-08-06T07:16:31;100599.28;;;19.48;62.61
77263;BME280;66373;52.334;4.806;2023-08-06T07:19:00;100584.91;;;19.35;62.58
77263;BME280;66373;52.334;4.806;2023-08-06T07:21:27;100593.22;;;19.47;62.44
77263;BME280;66373;52.334;4.806;2023-08-06T07:23:54;100594.97;;;19.47;62.60
77263;BME280;66373;52.334;4.806;2023-08-06T07:26:25;100600.25;;;19.45;62.53
77263;BME280;66373;52.334;4.806;2023-08-06T07:28:52;100603.66;;;19.47;62.78
77263;BME280;66373;52.334;4.806;2023-08-06T07:31:19;100604.50;;;19.48;63.01
77263;BME280;66373;52.334;4.806;2023-08-06T07:33:46;100609.72;;;19.48;62.86
77263;BME280;66373;52.334;4.806;2023-08-06T07:36:15;100576.34;;;19.29;63.02
77263;BME280;66373;52.334;4.806;2023-08-06T07:38:42;100611.44;;;19.49;62.70
77263;BME280;66373;52.334;4.806;2023-08-06T07:41:09;100601.16;;;19.44;62.91
77263;BME280;66373;52.334;4.806;2023-08-06T07:43:36;100609.72;;;19.48;62.41
77263;BME280;66373;52.334;4.806;2023-08-06T07:46:03;100611.44;;;19.49;62.69
77263;BME280;66373;52.334;4.806;2023-08-06T07:48:31;100618.34;;;19.50;62.89
77263;BME280;66373;52.334;4.806;2023-08-06T07:50:58;100610.59;;;19.48;62.75
77263;BME280;66373;52.334;4.806;2023-08-06T07:53:28;100611.44;;;19.49;62.48
77263;BME280;66373;52.334;4.806;2023-08-06T07:55:56;100614.06;;;19.49;62.88
77263;BME280;66373;52.334;4.806;2023-08-06T07:58:24;100608.91;;;19.46;62.88
77263;BME280;66373;52.334;4.806;2023-08-06T08:00:52;100616.66;;;19.49;62.61
77263;BME280;66373;52.334;4.806;2023-08-06T08:03:19;100627.91;;;19.49;62.47
77263;BME280;66373;52.334;4.806;2023-08-06T08:05:46;100607.47;;;19.36;62.46
77263;BME280;66373;52.334;4.806;2023-08-06T08:08:13;100617.69;;;19.43;62.44
77263;BME280;66373;52.334;4.806;2023-08-06T08:10:42;100595.38;;;19.33;62.85
77263;BME280;66373;52.334;4.806;2023-08-06T08:13:09;100628.88;;;19.47;62.60
77263;BME280;66373;52.334;4.806;2023-08-06T08:15:36;100627.09;;;19.49;62.48
77263;BME280;66373;52.334;4.806;2023-08-06T08:18:03;100628.84;;;19.48;62.93
77263;BME280;66373;52.334;4.806;2023-08-06T08:20:30;100620.34;;;19.42;62.38
77263;BME280;66373;52.334;4.806;2023-08-06T08:22:59;100632.31;;;19.49;62.71
77263;BME280;66373;52.334;4.806;2023-08-06T08:25:27;100623.72;;;19.45;62.78
77263;BME280;66373;52.334;4.806;2023-08-06T08:27:55;100634.88;;;19.50;62.75
77263;BME280;66373;52.334;4.806;2023-08-06T08:30:22;100634.88;;;19.50;62.63
77263;BME280;66373;52.334;4.806;2023-08-06T08:32:50;100634.00;;;19.50;62.81
77263;BME280;66373;52.334;4.806;2023-08-06T08:35:17;100637.47;;;19.50;62.46
77263;BME280;66373;52.334;4.806;2023-08-06T08:37:45;100634.00;;;19.50;62.50
77263;BME280;66373;52.334;4.806;2023-08-06T08:40:13;100628.78;;;19.50;62.77
77263;BME280;66373;52.334;4.806;2023-08-06T08:42:40;100635.72;;;19.51;62.49
77263;BME280;66373;52.334;4.806;2023-08-06T08:45:12;100635.72;;;19.51;62.61
77263;BME280;66373;52.334;4.806;2023-08-06T08:47:40;100633.13;;;19.51;62.64
77263;BME280;66373;52.334;4.806;2023-08-06T08:50:09;100635.72;;;19.51;62.29
77263;BME280;66373;52.334;4.806;2023-08-06T08:52:38;100642.66;;;19.52;62.64
77263;BME280;66373;52.334;4.806;2023-08-06T08:55:07;100642.66;;;19.52;62.42
77263;BME280;66373;52.334;4.806;2023-08-06T08:57:35;100647.88;;;19.52;62.41
77263;BME280;66373;52.334;4.806;2023-08-06T09:00:06;100630.69;;;19.45;62.37
77263;BME280;66373;52.334;4.806;2023-08-06T09:02:37;100646.97;;;19.53;62.76
77263;BME280;66373;52.334;4.806;2023-08-06T09:05:09;100624.84;;;19.37;62.43
77263;BME280;66373;52.334;4.806;2023-08-06T09:07:42;100652.19;;;19.53;62.37
77263;BME280;66373;52.334;4.806;2023-08-06T09:10:11;100659.16;;;19.52;62.89
77263;BME280;66373;52.334;4.806;2023-08-06T09:12:39;100649.84;;;19.44;62.24
77263;BME280;66373;52.334;4.806;2023-08-06T09:15:10;100664.44;;;19.51;62.44
77263;BME280;66373;52.334;4.806;2023-08-06T09:17:40;100668.75;;;19.52;62.36
77263;BME280;66373;52.334;4.806;2023-08-06T09:20:11;100677.38;;;19.54;62.44
77263;BME280;66373;52.334;4.806;2023-08-06T09:22:38;100676.47;;;19.55;62.88
77263;BME280;66373;52.334;4.806;2023-08-06T09:25:08;100679.19;;;19.52;62.76
77263;BME280;66373;52.334;4.806;2023-08-06T09:27:36;100677.47;;;19.51;62.37
77263;BME280;66373;52.334;4.806;2023-08-06T09:30:08;100676.47;;;19.55;62.34
77263;BME280;66373;52.334;4.806;2023-08-06T09:32:46;100684.31;;;19.55;62.27
77263;BME280;66373;52.334;4.806;2023-08-06T09:35:17;100670.50;;;19.50;62.26
77263;BME280;66373;52.334;4.806;2023-08-06T09:37:44;100696.47;;;19.56;62.42
77263;BME280;66373;52.334;4.806;2023-08-06T09:40:24;100697.31;;;19.56;62.29
77263;BME280;66373;52.334;4.806;2023-08-06T09:42:52;100699.06;;;19.56;62.66
77263;BME280;66373;52.334;4.806;2023-08-06T09:45:22;100703.47;;;19.54;62.31
77263;BME280;66373;52.334;4.806;2023-08-06T09:47:57;100704.25;;;19.57;62.50
77263;BME280;66373;52.334;4.806;2023-08-06T09:50:28;100657.38;;;19.23;62.38
77263;BME280;66373;52.334;4.806;2023-08-06T09:53:02;100703.56;;;19.51;62.42
77263;BME280;66373;52.334;4.806;2023-08-06T09:55:35;100712.03;;;19.59;63.87
77263;BME280;66373;52.334;4.806;2023-08-06T09:58:03;100724.84;;;19.67;63.03
77263;BME280;66373;52.334;4.806;2023-08-06T10:00:31;100714.41;;;19.67;63.09
77263;BME280;66373;52.334;4.806;2023-08-06T10:03:01;100703.56;;;19.51;63.02
77263;BME280;66373;52.334;4.806;2023-08-06T10:05:32;100678.13;;;19.28;62.88
77263;BME280;66373;52.334;4.806;2023-08-06T10:08:06;100732.72;;;19.65;62.45
77263;BME280;66373;52.334;4.806;2023-08-06T10:10:34;100731.03;;;19.64;62.78
77263;BME280;66373;52.334;4.806;2023-08-06T10:13:03;100718.97;;;19.60;62.99
77263;BME280;66373;52.334;4.806;2023-08-06T10:15:35;100734.53;;;19.63;62.52
77263;BME280;66373;52.334;4.806;2023-08-06T10:18:06;100725.88;;;19.61;62.44
77263;BME280;66373;52.334;4.806;2023-08-06T10:20:34;100726.81;;;19.58;62.50
77263;BME280;66373;52.334;4.806;2023-08-06T10:23:07;100714.94;;;19.48;62.60
77263;BME280;66373;52.334;4.806;2023-08-06T10:25:41;100735.47;;;19.60;62.78
77263;BME280;66373;52.334;4.806;2023-08-06T10:28:12;100725.19;;;19.54;63.02
77263;BME280;66373;52.334;4.806;2023-08-06T10:30:44;100736.31;;;19.61;62.69
77263;BME280;66373;52.334;4.806;2023-08-06T10:33:13;100731.09;;;19.61;62.93
77263;BME280;66373;52.334;4.806;2023-08-06T10:35:43;100742.44;;;19.60;62.63
77263;BME280;66373;52.334;4.806;2023-08-06T10:38:12;100707.31;;;19.41;63.12
77263;BME280;66373;52.334;4.806;2023-08-06T10:40:40;100729.47;;;19.57;62.58
77263;BME280;66373;52.334;4.806;2023-08-06T10:43:24;100703.13;;;19.35;62.95
77263;BME280;66373;52.334;4.806;2023-08-06T10:45:53;100726.06;;;19.55;63.04
77263;BME280;66373;52.334;4.806;2023-08-06T10:48:33;100739.84;;;19.60;63.22
77263;BME280;66373;52.334;4.806;2023-08-06T10:51:03;100745.88;;;19.62;63.26
77263;BME280;66373;52.334;4.806;2023-08-06T10:53:30;100664.59;;;19.15;62.69
77263;BME280;66373;52.334;4.806;2023-08-06T10:55:57;100748.47;;;19.62;63.08
77263;BME280;66373;52.334;4.806;2023-08-06T10:58:26;100743.25;;;19.62;62.86
77263;BME280;66373;52.334;4.806;2023-08-06T11:00:53;100753.78;;;19.59;62.66
77263;BME280;66373;52.334;4.806;2023-08-06T11:03:20;100756.31;;;19.62;62.90
77263;BME280;66373;52.334;4.806;2023-08-06T11:05:50;100753.69;;;19.62;62.75
77263;BME280;66373;52.334;4.806;2023-08-06T11:08:24;100740.00;;;19.54;62.80
77263;BME280;66373;52.334;4.806;2023-08-06T11:10:53;100758.91;;;19.62;63.12
77263;BME280;66373;52.334;4.806;2023-08-06T11:13:20;100723.84;;;19.41;62.50
77263;BME280;66373;52.334;4.806;2023-08-06T11:15:48;100733.25;;;19.47;63.29
77263;BME280;66373;52.334;4.806;2023-08-06T11:18:19;100762.34;;;19.64;62.78
77263;BME280;66373;52.334;4.806;2023-08-06T11:20:46;100761.56;;;19.60;62.95
77263;BME280;66373;52.334;4.806;2023-08-06T11:23:15;100745.22;;;19.54;62.64
77263;BME280;66373;52.334;4.806;2023-08-06T11:25:44;100714.53;;;19.31;62.72
77263;BME280;66373;52.334;4.806;2023-08-06T11:28:11;100765.03;;;19.61;62.54
77263;BME280;66373;52.334;4.806;2023-08-06T11:30:38;100767.56;;;19.64;62.68
77263;BME280;66373;52.334;4.806;2023-08-06T11:33:09;100762.34;;;19.64;62.86
77263;BME280;66373;52.334;4.806;2023-08-06T11:35:37;100764.03;;;19.65;62.84
77263;BME280;66373;52.334;4.806;2023-08-06T11:38:05;100769.25;;;19.65;62.95
77263;BME280;66373;52.334;4.806;2023-08-06T11:40:37;100769.25;;;19.65;63.11
77263;BME280;66373;52.334;4.806;2023-08-06T11:43:05;100756.31;;;19.62;62.55
77263;BME280;66373;52.334;4.806;2023-08-06T11:45:35;100758.81;;;19.65;62.98
77263;BME280;66373;52.334;4.806;2023-08-06T11:48:03;100753.78;;;19.59;63.01
77263;BME280;66373;52.334;4.806;2023-08-06T11:50:36;100764.03;;;19.65;62.65
77263;BME280;66373;52.334;4.806;2023-08-06T11:53:04;100759.69;;;19.65;62.77
77263;BME280;66373;52.334;4.806;2023-08-06T11:55:32;100771.81;;;19.67;62.85
77263;BME280;66373;52.334;4.806;2023-08-06T11:58:04;100778.75;;;19.68;63.13
77263;BME280;66373;52.334;4.806;2023-08-06T12:00:31;100778.75;;;19.68;62.77
77263;BME280;66373;52.334;4.806;2023-08-06T12:02:59;100774.41;;;19.68;62.83
77263;BME280;66373;52.334;4.806;2023-08-06T12:05:29;100762.41;;;19.61;62.90
77263;BME280;66373;52.334;4.806;2023-08-06T12:08:00;100763.16;;;19.66;62.92
77263;BME280;66373;52.334;4.806;2023-08-06T12:10:29;100776.19;;;19.66;62.98
77263;BME280;66373;52.334;4.806;2023-08-06T12:12:57;100777.06;;;19.67;62.94
77263;BME280;66373;52.334;4.806;2023-08-06T12:15:25;100787.38;;;19.71;62.67
77263;BME280;66373;52.334;4.806;2023-08-06T12:17:52;100772.69;;;19.67;62.87
77263;BME280;66373;52.334;4.806;2023-08-06T12:20:19;100784.72;;;19.73;62.65
77263;BME280;66373;52.334;4.806;2023-08-06T12:22:46;100785.56;;;19.73;62.60
77263;BME280;66373;52.334;4.806;2023-08-06T12:25:14;100788.16;;;19.73;62.46
77263;BME280;66373;52.334;4.806;2023-08-06T12:27:42;100791.56;;;19.75;62.73
77263;BME280;66373;52.334;4.806;2023-08-06T12:30:10;100798.50;;;19.76;62.60
77263;BME280;66373;52.334;4.806;2023-08-06T12:32:39;100798.63;;;19.73;62.85
77263;BME280;66373;52.334;4.806;2023-08-06T12:35:07;100786.63;;;19.66;63.13
77263;BME280;66373;52.334;4.806;2023-08-06T12:37:35;100789.13;;;19.71;62.72
77263;BME280;66373;52.334;4.806;2023-08-06T12:40:05;100804.50;;;19.80;62.90
77263;BME280;66373;52.334;4.806;2023-08-06T12:42:32;100803.63;;;19.79;62.53
77263;BME280;66373;52.334;4.806;2023-08-06T12:44:59;100807.06;;;19.81;62.85
77263;BME280;66373;52.334;4.806;2023-08-06T12:47:26;100812.28;;;19.81;62.93
77263;BME280;66373;52.334;4.806;2023-08-06T12:49:54;100813.13;;;19.82;62.82
77263;BME280;66373;52.334;4.806;2023-08-06T12:52:21;100807.13;;;19.78;62.95
77263;BME280;66373;52.334;4.806;2023-08-06T12:54:48;100814.06;;;19.79;62.63
77263;BME280;66373;52.334;4.806;2023-08-06T12:57:15;100817.41;;;19.84;62.76